sensor_id;sensor_type;location;lat;lon;timestamp;P1;durP1;ratioP1;P2;durP2;ratioP2
45688;SDS011;31400;48.132;20.872;2024-01-30T00:01:08;63.90;;;34.22;;
45688;SDS011;31400;48.132;20.872;2024-01-30T00:03:34;67.63;;;36.40;;
45688;SDS011;31400;48.132;20.872;2024-01-30T00:06:00;71.93;;;33.88;;
45688;SDS011;31400;48.132;20.872;2024-01-30T00:08:28;56.55;;;33.25;;
45688;SDS011;31400;48.132;20.872;2024-01-30T00:10:54;57.30;;;32.33;;
45688;SDS011;31400;48.132;20.872;2024-01-30T00:13:20;63.63;;;33.20;;
45688;SDS011;31400;48.132;20.872;2024-01-30T00:15:46;57.13;;;32.85;;
45688;SDS011;31400;48.132;20.872;2024-01-30T00:18:13;56.25;;;33.63;;
45688;SDS011;31400;48.132;20.872;2024-01-30T00:20:40;63.05;;;30.83;;
45688;SDS011;31400;48.132;20.872;2024-01-30T00:23:07;66.70;;;32.05;;
45688;SDS011;31400;48.132;20.872;2024-01-30T00:25:33;62.83;;;31.90;;
45688;SDS011;31400;48.132;20.872;2024-01-30T00:27:59;68.15;;;34.75;;
45688;SDS011;31400;48.132;20.872;2024-01-30T00:30:26;68.20;;;36.42;;
45688;SDS011;31400;48.132;20.872;2024-01-30T00:32:55;69.78;;;34.28;;
45688;SDS011;31400;48.132;20.872;2024-01-30T00:35:21;64.90;;;32.90;;
45688;SDS011;31400;48.132;20.872;2024-01-30T00:40:13;59.35;;;32.33;;
45688;SDS011;31400;48.132;20.872;2024-01-30T00:42:41;54.45;;;30.33;;
45688;SDS011;31400;48.132;20.872;2024-01-30T00:45:11;60.55;;;30.85;;
45688;SDS011;31400;48.132;20.872;2024-01-30T00:47:38;59.20;;;30.65;;
45688;SDS011;31400;48.132;20.872;2024-01-30T00:50:04;67.15;;;31.20;;
45688;SDS011;31400;48.132;20.872;2024-01-30T00:52:30;65.43;;;33.78;;
45688;SDS011;31400;48.132;20.872;2024-01-30T00:54:57;63.33;;;33.47;;
45688;SDS011;31400;48.132;20.872;2024-01-30T00:57:23;60.92;;;33.70;;
45688;SDS011;31400;48.132;20.872;2024-01-30T00:59:49;68.43;;;35.83;;
45688;SDS011;31400;48.132;20.872;2024-01-30T01:02:15;58.92;;;33.65;;
45688;SDS011;31400;48.132;20.872;2024-01-30T01:04:42;61.95;;;33.53;;
45688;SDS011;31400;48.132;20.872;2024-01-30T01:07:09;57.65;;;32.67;;
45688;SDS011;31400;48.132;20.872;2024-01-30T01:09:35;64.63;;;32.83;;
45688;SDS011;31400;48.132;20.872;2024-01-30T01:12:01;56.55;;;33.58;;
45688;SDS011;31400;48.132;20.872;2024-01-30T01:14:27;58.75;;;31.73;;
45688;SDS011;31400;48.132;20.872;2024-01-30T01:16:53;56.42;;;30.13;;
45688;SDS011;31400;48.132;20.872;2024-01-30T01:19:19;47.17;;;29.33;;
45688;SDS011;31400;48.132;20.872;2024-01-30T01:21:45;50.17;;;29.58;;
45688;SDS011;31400;48.132;20.872;2024-01-30T01:24:11;65.95;;;30.42;;
45688;SDS011;31400;48.132;20.872;2024-01-30T01:26:38;53.17;;;28.00;;
45688;SDS011;31400;48.132;20.872;2024-01-30T01:29:04;67.45;;;31.13;;
45688;SDS011;31400;48.132;20.872;2024-01-30T01:31:35;57.10;;;29.98;;
45688;SDS011;31400;48.132;20.872;2024-01-30T01:34:05;54.80;;;29.00;;
45688;SDS011;31400;48.132;20.872;2024-01-30T01:36:31;64.93;;;33.63;;
45688;SDS011;31400;48.132;20.872;2024-01-30T01:38:56;51.05;;;29.42;;
45688;SDS011;31400;48.132;20.872;2024-01-30T01:41:22;60.67;;;30.98;;
45688;SDS011;31400;48.132;20.872;2024-01-30T01:43:48;64.18;;;31.27;;
45688;SDS011;31400;48.132;20.872;2024-01-30T01:46:14;56.33;;;29.85;;
45688;SDS011;31400;48.132;20.872;2024-01-30T01:48:41;57.95;;;29.95;;
45688;SDS011;31400;48.132;20.872;2024-01-30T01:51:08;50.67;;;29.30;;
45688;SDS011;31400;48.132;20.872;2024-01-30T01:56:00;51.00;;;29.55;;
45688;SDS011;31400;48.132;20.872;2024-01-30T01:58:26;55.58;;;30.08;;
45688;SDS011;31400;48.132;20.872;2024-01-30T02:00:56;61.20;;;31.95;;
45688;SDS011;31400;48.132;20.872;2024-01-30T02:03:23;67.88;;;32.65;;
45688;SDS011;31400;48.132;20.872;2024-01-30T02:05:52;42.70;;;22.48;;
45688;SDS011;31400;48.132;20.872;2024-01-30T02:08:19;57.95;;;31.75;;
45688;SDS011;31400;48.132;20.872;2024-01-30T02:10:45;66.10;;;33.03;;
45688;SDS011;31400;48.132;20.872;2024-01-30T02:13:11;61.88;;;30.65;;
45688;SDS011;31400;48.132;20.872;2024-01-30T02:15:37;63.35;;;34.97;;
45688;SDS011;31400;48.132;20.872;2024-01-30T02:18:03;56.13;;;32.22;;
45688;SDS011;31400;48.132;20.872;2024-01-30T02:20:29;64.53;;;33.40;;
45688;SDS011;31400;48.132;20.872;2024-01-30T02:22:56;67.15;;;35.05;;
45688;SDS011;31400;48.132;20.872;2024-01-30T02:28:21;63.13;;;32.33;;
45688;SDS011;31400;48.132;20.872;2024-01-30T02:30:47;61.88;;;33.55;;
45688;SDS011;31400;48.132;20.872;2024-01-30T02:33:13;67.60;;;33.85;;
45688;SDS011;31400;48.132;20.872;2024-01-30T02:35:39;57.58;;;30.75;;
45688;SDS011;31400;48.132;20.872;2024-01-30T02:38:05;78.95;;;38.15;;
45688;SDS011;31400;48.132;20.872;2024-01-30T02:40:31;68.05;;;35.10;;
45688;SDS011;31400;48.132;20.872;2024-01-30T02:42:58;61.65;;;33.80;;
45688;SDS011;31400;48.132;20.872;2024-01-30T02:45:24;70.97;;;38.15;;
45688;SDS011;31400;48.132;20.872;2024-01-30T02:47:50;70.03;;;38.08;;
45688;SDS011;31400;48.132;20.872;2024-01-30T02:50:16;71.10;;;37.15;;
45688;SDS011;31400;48.132;20.872;2024-01-30T02:52:42;61.30;;;35.67;;
45688;SDS011;31400;48.132;20.872;2024-01-30T02:55:09;69.35;;;36.00;;
45688;SDS011;31400;48.132;20.872;2024-01-30T02:57:35;70.55;;;35.20;;
45688;SDS011;31400;48.132;20.872;2024-01-30T03:00:01;61.22;;;35.90;;
45688;SDS011;31400;48.132;20.872;2024-01-30T03:02:28;63.90;;;37.90;;
45688;SDS011;31400;48.132;20.872;2024-01-30T03:04:54;67.57;;;36.90;;
45688;SDS011;31400;48.132;20.872;2024-01-30T03:07:20;64.60;;;33.92;;
45688;SDS011;31400;48.132;20.872;2024-01-30T03:09:46;63.50;;;34.05;;
45688;SDS011;31400;48.132;20.872;2024-01-30T03:14:39;65.63;;;37.05;;
45688;SDS011;31400;48.132;20.872;2024-01-30T03:17:05;64.80;;;36.17;;
45688;SDS011;31400;48.132;20.872;2024-01-30T03:19:31;73.43;;;39.55;;
45688;SDS011;31400;48.132;20.872;2024-01-30T03:21:57;71.95;;;37.78;;
45688;SDS011;31400;48.132;20.872;2024-01-30T03:26:49;63.15;;;32.40;;
45688;SDS011;31400;48.132;20.872;2024-01-30T03:29:15;68.25;;;36.65;;
45688;SDS011;31400;48.132;20.872;2024-01-30T03:31:41;70.15;;;34.28;;
45688;SDS011;31400;48.132;20.872;2024-01-30T03:34:07;59.78;;;34.42;;
45688;SDS011;31400;48.132;20.872;2024-01-30T03:36:33;56.17;;;32.03;;
45688;SDS011;31400;48.132;20.872;2024-01-30T03:38:59;63.75;;;33.58;;
45688;SDS011;31400;48.132;20.872;2024-01-30T03:41:25;58.03;;;32.35;;
45688;SDS011;31400;48.132;20.872;2024-01-30T03:43:51;64.65;;;33.78;;
45688;SDS011;31400;48.132;20.872;2024-01-30T03:46:17;70.70;;;34.05;;
45688;SDS011;31400;48.132;20.872;2024-01-30T03:48:44;69.50;;;33.85;;
45688;SDS011;31400;48.132;20.872;2024-01-30T03:51:11;61.38;;;33.22;;
45688;SDS011;31400;48.132;20.872;2024-01-30T03:53:39;71.38;;;36.50;;
45688;SDS011;31400;48.132;20.872;2024-01-30T03:56:06;77.25;;;38.65;;
45688;SDS011;31400;48.132;20.872;2024-01-30T03:58:32;88.80;;;42.47;;
45688;SDS011;31400;48.132;20.872;2024-01-30T04:00:59;81.28;;;44.83;;
45688;SDS011;31400;48.132;20.872;2024-01-30T04:03:25;88.90;;;41.03;;
45688;SDS011;31400;48.132;20.872;2024-01-30T04:05:51;82.57;;;41.47;;
45688;SDS011;31400;48.132;20.872;2024-01-30T04:08:18;74.80;;;41.13;;
45688;SDS011;31400;48.132;20.872;2024-01-30T04:10:44;83.25;;;43.78;;
45688;SDS011;31400;48.132;20.872;2024-01-30T04:13:10;89.22;;;39.92;;
45688;SDS011;31400;48.132;20.872;2024-01-30T04:15:36;89.40;;;44.70;;
45688;SDS011;31400;48.132;20.872;2024-01-30T04:18:02;71.93;;;40.38;;
45688;SDS011;31400;48.132;20.872;2024-01-30T04:20:28;84.18;;;42.33;;
45688;SDS011;31400;48.132;20.872;2024-01-30T04:22:55;74.45;;;41.65;;
45688;SDS011;31400;48.132;20.872;2024-01-30T04:25:21;75.18;;;37.35;;
45688;SDS011;31400;48.132;20.872;2024-01-30T04:27:47;79.25;;;43.03;;
45688;SDS011;31400;48.132;20.872;2024-01-30T04:30:13;83.95;;;42.55;;
45688;SDS011;31400;48.132;20.872;2024-01-30T04:32:39;74.28;;;40.40;;
45688;SDS011;31400;48.132;20.872;2024-01-30T04:35:05;77.45;;;41.83;;
45688;SDS011;31400;48.132;20.872;2024-01-30T04:37:31;86.97;;;42.22;;
45688;SDS011;31400;48.132;20.872;2024-01-30T04:39:57;51.97;;;28.98;;
45688;SDS011;31400;48.132;20.872;2024-01-30T04:42:23;80.50;;;39.92;;
45688;SDS011;31400;48.132;20.872;2024-01-30T04:44:49;77.82;;;41.65;;
45688;SDS011;31400;48.132;20.872;2024-01-30T04:47:16;66.82;;;37.17;;
45688;SDS011;31400;48.132;20.872;2024-01-30T04:49:42;73.95;;;38.65;;
45688;SDS011;31400;48.132;20.872;2024-01-30T04:52:08;59.65;;;27.17;;
45688;SDS011;31400;48.132;20.872;2024-01-30T04:54:34;64.35;;;35.40;;
45688;SDS011;31400;48.132;20.872;2024-01-30T04:59:26;62.10;;;30.98;;
45688;SDS011;31400;48.132;20.872;2024-01-30T05:01:53;38.03;;;22.85;;
45688;SDS011;31400;48.132;20.872;2024-01-30T05:04:19;58.67;;;30.55;;
45688;SDS011;31400;48.132;20.872;2024-01-30T05:06:45;67.97;;;30.65;;
45688;SDS011;31400;48.132;20.872;2024-01-30T05:09:11;60.70;;;31.60;;
45688;SDS011;31400;48.132;20.872;2024-01-30T05:11:37;58.45;;;31.08;;
45688;SDS011;31400;48.132;20.872;2024-01-30T05:14:04;54.33;;;30.52;;
45688;SDS011;31400;48.132;20.872;2024-01-30T05:16:30;57.25;;;31.73;;
45688;SDS011;31400;48.132;20.872;2024-01-30T05:18:57;56.10;;;30.73;;
45688;SDS011;31400;48.132;20.872;2024-01-30T05:21:23;60.05;;;29.77;;
45688;SDS011;31400;48.132;20.872;2024-01-30T05:23:49;60.17;;;32.85;;
45688;SDS011;31400;48.132;20.872;2024-01-30T05:26:15;57.97;;;33.80;;
45688;SDS011;31400;48.132;20.872;2024-01-30T05:28:41;64.10;;;34.85;;
45688;SDS011;31400;48.132;20.872;2024-01-30T05:31:09;55.20;;;30.90;;
45688;SDS011;31400;48.132;20.872;2024-01-30T05:33:38;64.25;;;33.45;;
45688;SDS011;31400;48.132;20.872;2024-01-30T05:36:04;69.60;;;35.67;;
45688;SDS011;31400;48.132;20.872;2024-01-30T05:38:30;68.95;;;35.80;;
45688;SDS011;31400;48.132;20.872;2024-01-30T05:43:23;62.55;;;33.30;;
45688;SDS011;31400;48.132;20.872;2024-01-30T05:45:49;73.70;;;35.47;;
45688;SDS011;31400;48.132;20.872;2024-01-30T05:48:15;61.40;;;34.70;;
45688;SDS011;31400;48.132;20.872;2024-01-30T05:50:41;64.03;;;33.05;;
45688;SDS011;31400;48.132;20.872;2024-01-30T05:53:07;66.22;;;32.47;;
45688;SDS011;31400;48.132;20.872;2024-01-30T05:55:33;58.03;;;31.23;;
45688;SDS011;31400;48.132;20.872;2024-01-30T05:57:59;60.63;;;32.00;;
45688;SDS011;31400;48.132;20.872;2024-01-30T06:00:25;63.83;;;31.50;;
45688;SDS011;31400;48.132;20.872;2024-01-30T06:02:51;41.15;;;23.55;;
45688;SDS011;31400;48.132;20.872;2024-01-30T06:05:17;72.15;;;31.35;;
45688;SDS011;31400;48.132;20.872;2024-01-30T06:07:43;57.70;;;31.88;;
45688;SDS011;31400;48.132;20.872;2024-01-30T06:10:09;61.95;;;31.27;;
45688;SDS011;31400;48.132;20.872;2024-01-30T06:12:35;54.58;;;29.05;;
45688;SDS011;31400;48.132;20.872;2024-01-30T06:15:01;60.70;;;30.70;;
45688;SDS011;31400;48.132;20.872;2024-01-30T06:17:28;62.03;;;32.40;;
45688;SDS011;31400;48.132;20.872;2024-01-30T06:22:20;57.58;;;34.50;;
45688;SDS011;31400;48.132;20.872;2024-01-30T06:24:46;59.50;;;33.42;;
45688;SDS011;31400;48.132;20.872;2024-01-30T06:27:15;67.20;;;33.70;;
45688;SDS011;31400;48.132;20.872;2024-01-30T06:32:07;69.45;;;32.60;;
45688;SDS011;31400;48.132;20.872;2024-01-30T06:34:33;60.50;;;33.85;;
45688;SDS011;31400;48.132;20.872;2024-01-30T06:36:59;63.90;;;34.58;;
45688;SDS011;31400;48.132;20.872;2024-01-30T06:39:25;67.88;;;34.38;;
45688;SDS011;31400;48.132;20.872;2024-01-30T06:41:52;60.50;;;34.92;;
45688;SDS011;31400;48.132;20.872;2024-01-30T06:44:18;55.00;;;32.22;;
45688;SDS011;31400;48.132;20.872;2024-01-30T06:46:44;58.60;;;29.70;;
45688;SDS011;31400;48.132;20.872;2024-01-30T06:49:10;47.80;;;27.52;;
45688;SDS011;31400;48.132;20.872;2024-01-30T06:51:36;47.10;;;26.48;;
45688;SDS011;31400;48.132;20.872;2024-01-30T06:54:02;51.10;;;25.67;;
45688;SDS011;31400;48.132;20.872;2024-01-30T06:56:28;46.40;;;26.45;;
45688;SDS011;31400;48.132;20.872;2024-01-30T06:58:54;42.05;;;25.25;;
45688;SDS011;31400;48.132;20.872;2024-01-30T07:01:20;48.30;;;28.65;;
45688;SDS011;31400;48.132;20.872;2024-01-30T07:03:46;46.90;;;26.92;;
45688;SDS011;31400;48.132;20.872;2024-01-30T07:06:12;43.17;;;21.80;;
45688;SDS011;31400;48.132;20.872;2024-01-30T07:08:38;44.75;;;21.77;;
45688;SDS011;31400;48.132;20.872;2024-01-30T07:11:04;32.88;;;22.27;;
45688;SDS011;31400;48.132;20.872;2024-01-30T07:13:31;39.55;;;23.17;;
45688;SDS011;31400;48.132;20.872;2024-01-30T07:15:57;39.40;;;23.35;;
45688;SDS011;31400;48.132;20.872;2024-01-30T07:18:23;47.45;;;25.30;;
45688;SDS011;31400;48.132;20.872;2024-01-30T07:20:49;45.70;;;26.60;;
45688;SDS011;31400;48.132;20.872;2024-01-30T07:23:16;41.45;;;25.30;;
45688;SDS011;31400;48.132;20.872;2024-01-30T07:25:45;45.88;;;25.98;;
45688;SDS011;31400;48.132;20.872;2024-01-30T07:28:14;43.75;;;25.58;;
45688;SDS011;31400;48.132;20.872;2024-01-30T07:30:43;49.88;;;25.42;;
45688;SDS011;31400;48.132;20.872;2024-01-30T07:33:09;51.25;;;25.88;;
45688;SDS011;31400;48.132;20.872;2024-01-30T07:35:35;43.08;;;25.02;;
45688;SDS011;31400;48.132;20.872;2024-01-30T07:38:02;44.92;;;24.02;;
45688;SDS011;31400;48.132;20.872;2024-01-30T07:40:30;42.17;;;24.60;;
45688;SDS011;31400;48.132;20.872;2024-01-30T07:42:58;47.47;;;25.52;;
45688;SDS011;31400;48.132;20.872;2024-01-30T07:45:24;44.20;;;24.58;;
45688;SDS011;31400;48.132;20.872;2024-01-30T07:47:51;52.72;;;25.70;;
45688;SDS011;31400;48.132;20.872;2024-01-30T07:50:17;40.10;;;22.52;;
45688;SDS011;31400;48.132;20.872;2024-01-30T07:52:44;41.25;;;21.75;;
45688;SDS011;31400;48.132;20.872;2024-01-30T07:58:13;35.72;;;23.15;;
45688;SDS011;31400;48.132;20.872;2024-01-30T08:00:39;41.67;;;24.85;;
45688;SDS011;31400;48.132;20.872;2024-01-30T08:03:05;44.38;;;26.30;;
45688;SDS011;31400;48.132;20.872;2024-01-30T08:05:31;36.83;;;23.27;;
45688;SDS011;31400;48.132;20.872;2024-01-30T08:07:57;49.67;;;24.98;;
45688;SDS011;31400;48.132;20.872;2024-01-30T08:10:23;41.33;;;23.80;;
45688;SDS011;31400;48.132;20.872;2024-01-30T08:12:49;37.17;;;24.98;;
45688;SDS011;31400;48.132;20.872;2024-01-30T08:15:15;44.92;;;25.58;;
45688;SDS011;31400;48.132;20.872;2024-01-30T08:17:41;42.97;;;24.30;;
45688;SDS011;31400;48.132;20.872;2024-01-30T08:20:07;43.45;;;24.85;;
45688;SDS011;31400;48.132;20.872;2024-01-30T08:22:35;41.35;;;25.85;;
45688;SDS011;31400;48.132;20.872;2024-01-30T08:25:01;41.78;;;26.73;;
45688;SDS011;31400;48.132;20.872;2024-01-30T08:27:27;46.90;;;27.17;;
45688;SDS011;31400;48.132;20.872;2024-01-30T08:29:53;43.55;;;28.45;;
45688;SDS011;31400;48.132;20.872;2024-01-30T08:32:19;40.45;;;26.75;;
45688;SDS011;31400;48.132;20.872;2024-01-30T08:34:45;43.47;;;26.65;;
45688;SDS011;31400;48.132;20.872;2024-01-30T08:37:11;43.15;;;27.02;;
45688;SDS011;31400;48.132;20.872;2024-01-30T08:39:38;43.92;;;26.33;;
45688;SDS011;31400;48.132;20.872;2024-01-30T08:42:04;40.75;;;27.00;;
45688;SDS011;31400;48.132;20.872;2024-01-30T08:44:30;40.88;;;25.42;;
45688;SDS011;31400;48.132;20.872;2024-01-30T08:46:56;45.42;;;24.58;;
45688;SDS011;31400;48.132;20.872;2024-01-30T08:51:48;39.10;;;24.70;;
45688;SDS011;31400;48.132;20.872;2024-01-30T08:54:15;37.88;;;23.65;;
45688;SDS011;31400;48.132;20.872;2024-01-30T08:59:07;34.47;;;23.85;;
45688;SDS011;31400;48.132;20.872;2024-01-30T09:03:59;38.63;;;23.58;;
45688;SDS011;31400;48.132;20.872;2024-01-30T09:06:25;35.45;;;22.58;;
45688;SDS011;31400;48.132;20.872;2024-01-30T09:08:53;32.78;;;22.80;;
45688;SDS011;31400;48.132;20.872;2024-01-30T09:11:19;31.40;;;20.60;;
45688;SDS011;31400;48.132;20.872;2024-01-30T09:13:45;32.83;;;21.73;;
45688;SDS011;31400;48.132;20.872;2024-01-30T09:16:11;26.02;;;19.08;;
45688;SDS011;31400;48.132;20.872;2024-01-30T09:18:37;30.80;;;19.27;;
45688;SDS011;31400;48.132;20.872;2024-01-30T09:21:03;31.48;;;18.83;;
45688;SDS011;31400;48.132;20.872;2024-01-30T09:23:29;32.10;;;20.48;;
45688;SDS011;31400;48.132;20.872;2024-01-30T09:25:55;37.17;;;20.35;;
45688;SDS011;31400;48.132;20.872;2024-01-30T09:28:21;30.20;;;21.05;;
45688;SDS011;31400;48.132;20.872;2024-01-30T09:30:47;30.58;;;20.30;;
45688;SDS011;31400;48.132;20.872;2024-01-30T09:33:13;33.13;;;21.58;;
45688;SDS011;31400;48.132;20.872;2024-01-30T09:35:39;29.30;;;20.42;;
45688;SDS011;31400;48.132;20.872;2024-01-30T09:38:05;32.30;;;21.58;;
45688;SDS011;31400;48.132;20.872;2024-01-30T09:40:31;30.55;;;22.33;;
45688;SDS011;31400;48.132;20.872;2024-01-30T09:42:57;38.63;;;20.95;;
45688;SDS011;31400;48.132;20.872;2024-01-30T09:45:27;29.15;;;20.70;;
45688;SDS011;31400;48.132;20.872;2024-01-30T09:47:53;38.92;;;24.60;;
45688;SDS011;31400;48.132;20.872;2024-01-30T09:50:19;31.75;;;24.30;;
45688;SDS011;31400;48.132;20.872;2024-01-30T09:52:46;33.10;;;24.33;;
45688;SDS011;31400;48.132;20.872;2024-01-30T09:55:12;39.90;;;26.10;;
45688;SDS011;31400;48.132;20.872;2024-01-30T09:57:38;34.10;;;24.02;;
45688;SDS011;31400;48.132;20.872;2024-01-30T10:00:05;35.63;;;24.95;;
45688;SDS011;31400;48.132;20.872;2024-01-30T10:02:33;30.92;;;21.85;;
45688;SDS011;31400;48.132;20.872;2024-01-30T10:04:59;37.20;;;24.05;;
45688;SDS011;31400;48.132;20.872;2024-01-30T10:07:26;43.78;;;23.33;;
45688;SDS011;31400;48.132;20.872;2024-01-30T10:09:52;33.72;;;22.27;;
45688;SDS011;31400;48.132;20.872;2024-01-30T10:12:18;32.83;;;22.20;;
45688;SDS011;31400;48.132;20.872;2024-01-30T10:14:44;25.45;;;19.60;;
45688;SDS011;31400;48.132;20.872;2024-01-30T10:17:11;32.67;;;20.70;;
45688;SDS011;31400;48.132;20.872;2024-01-30T10:19:38;26.58;;;19.45;;
45688;SDS011;31400;48.132;20.872;2024-01-30T10:22:06;30.33;;;20.83;;
45688;SDS011;31400;48.132;20.872;2024-01-30T10:24:35;24.25;;;17.83;;
45688;SDS011;31400;48.132;20.872;2024-01-30T10:27:08;29.23;;;19.70;;
45688;SDS011;31400;48.132;20.872;2024-01-30T10:29:34;22.60;;;18.35;;
45688;SDS011;31400;48.132;20.872;2024-01-30T10:32:00;44.10;;;20.23;;
45688;SDS011;31400;48.132;20.872;2024-01-30T10:34:26;24.55;;;19.60;;
45688;SDS011;31400;48.132;20.872;2024-01-30T10:37:13;27.77;;;20.23;;
45688;SDS011;31400;48.132;20.872;2024-01-30T10:39:42;29.08;;;18.75;;
45688;SDS011;31400;48.132;20.872;2024-01-30T10:42:12;34.03;;;19.38;;
45688;SDS011;31400;48.132;20.872;2024-01-30T10:47:18;23.77;;;18.52;;
45688;SDS011;31400;48.132;20.872;2024-01-30T10:49:48;34.28;;;18.00;;
45688;SDS011;31400;48.132;20.872;2024-01-30T10:52:15;29.15;;;19.23;;
45688;SDS011;31400;48.132;20.872;2024-01-30T10:54:42;33.83;;;18.98;;
45688;SDS011;31400;48.132;20.872;2024-01-30T10:57:10;38.28;;;19.90;;
45688;SDS011;31400;48.132;20.872;2024-01-30T10:59:37;24.88;;;16.75;;
45688;SDS011;31400;48.132;20.872;2024-01-30T11:02:03;27.25;;;16.50;;
45688;SDS011;31400;48.132;20.872;2024-01-30T11:04:36;31.23;;;18.33;;
45688;SDS011;31400;48.132;20.872;2024-01-30T11:07:02;27.60;;;17.60;;
45688;SDS011;31400;48.132;20.872;2024-01-30T11:09:29;35.13;;;18.77;;
45688;SDS011;31400;48.132;20.872;2024-01-30T11:11:56;25.30;;;17.42;;
45688;SDS011;31400;48.132;20.872;2024-01-30T11:14:25;25.48;;;16.10;;
45688;SDS011;31400;48.132;20.872;2024-01-30T11:16:51;27.40;;;16.02;;
45688;SDS011;31400;48.132;20.872;2024-01-30T11:19:27;24.80;;;17.08;;
45688;SDS011;31400;48.132;20.872;2024-01-30T11:21:53;25.90;;;18.13;;
45688;SDS011;31400;48.132;20.872;2024-01-30T11:24:21;27.95;;;19.30;;
45688;SDS011;31400;48.132;20.872;2024-01-30T11:26:48;23.92;;;18.70;;
45688;SDS011;31400;48.132;20.872;2024-01-30T11:29:16;25.77;;;18.65;;
45688;SDS011;31400;48.132;20.872;2024-01-30T11:31:52;22.92;;;16.67;;
45688;SDS011;31400;48.132;20.872;2024-01-30T11:34:18;25.50;;;18.95;;
45688;SDS011;31400;48.132;20.872;2024-01-30T11:36:45;26.60;;;19.13;;
45688;SDS011;31400;48.132;20.872;2024-01-30T11:39:16;29.15;;;20.83;;
45688;SDS011;31400;48.132;20.872;2024-01-30T11:41:43;22.10;;;17.48;;
45688;SDS011;31400;48.132;20.872;2024-01-30T11:44:09;29.92;;;19.17;;
45688;SDS011;31400;48.132;20.872;2024-01-30T11:46:35;26.65;;;20.20;;
45688;SDS011;31400;48.132;20.872;2024-01-30T11:49:01;24.42;;;17.35;;
45688;SDS011;31400;48.132;20.872;2024-01-30T11:51:30;33.05;;;18.55;;
45688;SDS011;31400;48.132;20.872;2024-01-30T11:53:57;29.23;;;19.10;;
45688;SDS011;31400;48.132;20.872;2024-01-30T11:56:26;30.13;;;20.27;;
45688;SDS011;31400;48.132;20.872;2024-01-30T11:58:52;28.35;;;19.20;;
45688;SDS011;31400;48.132;20.872;2024-01-30T12:01:18;25.48;;;18.33;;
45688;SDS011;31400;48.132;20.872;2024-01-30T12:06:10;30.13;;;19.70;;
45688;SDS011;31400;48.132;20.872;2024-01-30T12:08:36;31.58;;;18.10;;
45688;SDS011;31400;48.132;20.872;2024-01-30T12:13:30;27.70;;;18.83;;
45688;SDS011;31400;48.132;20.872;2024-01-30T12:18:22;26.17;;;20.02;;
45688;SDS011;31400;48.132;20.872;2024-01-30T12:23:13;34.47;;;19.60;;
45688;SDS011;31400;48.132;20.872;2024-01-30T12:25:39;28.38;;;19.13;;
45688;SDS011;31400;48.132;20.872;2024-01-30T12:28:06;26.52;;;20.02;;
45688;SDS011;31400;48.132;20.872;2024-01-30T12:30:32;32.90;;;20.08;;
45688;SDS011;31400;48.132;20.872;2024-01-30T12:33:01;26.27;;;19.10;;
45688;SDS011;31400;48.132;20.872;2024-01-30T12:35:29;26.13;;;19.25;;
45688;SDS011;31400;48.132;20.872;2024-01-30T12:40:21;36.20;;;20.70;;
45688;SDS011;31400;48.132;20.872;2024-01-30T12:45:16;27.38;;;19.80;;
45688;SDS011;31400;48.132;20.872;2024-01-30T12:47:46;27.70;;;19.45;;
45688;SDS011;31400;48.132;20.872;2024-01-30T12:52:40;32.38;;;18.52;;
45688;SDS011;31400;48.132;20.872;2024-01-30T12:55:06;30.63;;;18.92;;
45688;SDS011;31400;48.132;20.872;2024-01-30T12:57:32;25.80;;;17.27;;
45688;SDS011;31400;48.132;20.872;2024-01-30T13:02:24;28.67;;;16.70;;
45688;SDS011;31400;48.132;20.872;2024-01-30T13:04:51;34.03;;;17.42;;
45688;SDS011;31400;48.132;20.872;2024-01-30T13:07:17;31.38;;;16.05;;
45688;SDS011;31400;48.132;20.872;2024-01-30T13:09:45;27.27;;;15.77;;
45688;SDS011;31400;48.132;20.872;2024-01-30T13:12:12;30.27;;;16.92;;
45688;SDS011;31400;48.132;20.872;2024-01-30T13:14:38;29.60;;;16.75;;
45688;SDS011;31400;48.132;20.872;2024-01-30T13:17:04;25.95;;;14.50;;
45688;SDS011;31400;48.132;20.872;2024-01-30T13:19:30;23.40;;;14.25;;
45688;SDS011;31400;48.132;20.872;2024-01-30T13:21:56;21.67;;;14.43;;
45688;SDS011;31400;48.132;20.872;2024-01-30T13:24:22;20.90;;;14.02;;
45688;SDS011;31400;48.132;20.872;2024-01-30T13:26:48;29.45;;;14.90;;
45688;SDS011;31400;48.132;20.872;2024-01-30T13:29:14;25.58;;;15.05;;
45688;SDS011;31400;48.132;20.872;2024-01-30T13:31:40;26.02;;;14.20;;
45688;SDS011;31400;48.132;20.872;2024-01-30T13:34:06;19.17;;;13.23;;
45688;SDS011;31400;48.132;20.872;2024-01-30T13:36:33;15.73;;;12.85;;
45688;SDS011;31400;48.132;20.872;2024-01-30T13:38:59;21.90;;;12.90;;
45688;SDS011;31400;48.132;20.872;2024-01-30T13:41:25;21.42;;;13.20;;
45688;SDS011;31400;48.132;20.872;2024-01-30T13:43:51;21.00;;;12.80;;
45688;SDS011;31400;48.132;20.872;2024-01-30T13:46:18;20.67;;;12.50;;
45688;SDS011;31400;48.132;20.872;2024-01-30T13:48:44;20.75;;;13.13;;
45688;SDS011;31400;48.132;20.872;2024-01-30T13:51:11;26.10;;;13.70;;
45688;SDS011;31400;48.132;20.872;2024-01-30T13:53:38;19.58;;;12.68;;
45688;SDS011;31400;48.132;20.872;2024-01-30T13:56:04;22.52;;;13.45;;
45688;SDS011;31400;48.132;20.872;2024-01-30T13:58:31;25.00;;;14.27;;
45688;SDS011;31400;48.132;20.872;2024-01-30T14:00:58;24.23;;;13.07;;
45688;SDS011;31400;48.132;20.872;2024-01-30T14:03:24;22.00;;;12.55;;
45688;SDS011;31400;48.132;20.872;2024-01-30T14:05:50;18.00;;;12.32;;
45688;SDS011;31400;48.132;20.872;2024-01-30T14:08:16;23.92;;;14.63;;
45688;SDS011;31400;48.132;20.872;2024-01-30T14:10:42;24.20;;;12.88;;
45688;SDS011;31400;48.132;20.872;2024-01-30T14:15:36;21.63;;;13.85;;
45688;SDS011;31400;48.132;20.872;2024-01-30T14:18:02;25.25;;;13.93;;
45688;SDS011;31400;48.132;20.872;2024-01-30T14:20:28;17.75;;;11.27;;
45688;SDS011;31400;48.132;20.872;2024-01-30T14:22:54;20.23;;;13.48;;
45688;SDS011;31400;48.132;20.872;2024-01-30T14:25:20;24.52;;;13.38;;
45688;SDS011;31400;48.132;20.872;2024-01-30T14:27:46;23.80;;;13.77;;
45688;SDS011;31400;48.132;20.872;2024-01-30T14:30:12;21.95;;;13.60;;
45688;SDS011;31400;48.132;20.872;2024-01-30T14:32:38;26.02;;;13.80;;
45688;SDS011;31400;48.132;20.872;2024-01-30T14:35:05;22.25;;;14.43;;
45688;SDS011;31400;48.132;20.872;2024-01-30T14:39:58;20.42;;;13.20;;
45688;SDS011;31400;48.132;20.872;2024-01-30T14:42:24;26.95;;;14.10;;
45688;SDS011;31400;48.132;20.872;2024-01-30T14:47:16;24.10;;;12.75;;
45688;SDS011;31400;48.132;20.872;2024-01-30T14:49:42;17.40;;;12.25;;
45688;SDS011;31400;48.132;20.872;2024-01-30T14:52:08;25.60;;;13.80;;
45688;SDS011;31400;48.132;20.872;2024-01-30T14:54:36;25.52;;;13.32;;
45688;SDS011;31400;48.132;20.872;2024-01-30T14:57:02;20.25;;;12.40;;
45688;SDS011;31400;48.132;20.872;2024-01-30T14:59:28;27.00;;;13.75;;
45688;SDS011;31400;48.132;20.872;2024-01-30T15:01:54;21.80;;;13.55;;
45688;SDS011;31400;48.132;20.872;2024-01-30T15:04:20;21.88;;;15.13;;
45688;SDS011;31400;48.132;20.872;2024-01-30T15:06:46;24.38;;;15.68;;